Monterey Peninsula Airport
KMRY : now visible

Aeroporto :











RITROVATECI SU...

 
LOGIN :

Iscrizione | Disclaimer

   EN    FR    IT 

 









Sommario :    VFR   VFR Marginale   IFR   IFR Intensivo   IFR Molto Intensivo
Visibilità : 
Base nubi : 
>= 8 km
>= 3000ft
5 / 8 km
1000 / 3000 ft
1500m / 5 km
500 / 1000 ft
800 / 1500m
200 / 500 ft
< 800m
< 200 ft
Simboli :   Temporali  Nebbia  Neve Forte  Precipitazioni Forti  Vento > 20 kt






- Altitudine del aeroporto : 257 ft
- Codice IATA : MRY


KMRY - Monterey Peninsula

ULTIMO METAR :
  • 201054Z AUTO 13005KT 10SM CLR 07/03 A3009 RMK AO2 SLP204 T00670028

METARs OBSOLETI :
  • 200954Z AUTO 11007KT 10SM CLR 08/05 A3011 RMK AO2 SLP209 T00780050
  • 200854Z AUTO 12006KT 10SM CLR 07/05 A3012 RMK AO2 SLP212 T00720050 58001

TAF KMRY
Valido dal 20 a 06 ore il 21 a 06 ore UTC


200539Z 2006/2106 13005KT P6SM FEW200
FM202100 29007KT P6SM FEW250
FM210300 24004KT P6SM SCT200
FM210500 12004KT P6SM SCT200



MetMap, La meteo Aeronautica in un colpo d'occhio ! - Copyright ORBIFLY Dicembre 2007 - Disclaimer

ORBIFLY MET'MAP TEAM :

Programmazione e sviluppo : Alexandra Zaïnal
Concezione : Baudouin d'Aumeries
Aiuto per la programmazione : Marc-Olivier Méhu
Supporto tecnico e logistico : Manuel Goepfert
Aiuto per la traduzione : Arnaldo La Scala

Contatto : metmap@orbifly.com




FONTI E CREDITI :

   NOAA       Earth
Advisory